Time;durP1;ratioP1;P1;durP2;ratioP2;P2;SDS_P1;SDS_P2;PMS_P1;PMS_P2;Temp;Humidity;BMP_temperature;BMP_pressure;BME280_temperature;BME280_humidity;BME280_pressure;Samples;Min_cycle;Max_cycle;Signal;HPM_P1;HPM_P2
2021/06/23 00:02:23;;;;;;;5.87;5.43;;;18.30;99.90;;;;;;5093602;28;20624;-83
2021/06/23 00:04:52;;;;;;;5.50;5.00;;;18.30;99.90;;;;;;5089534;28;21232;-82
2021/06/23 00:07:18;;;;;;;6.70;6.10;;;18.40;99.90;;;;;;5073499;28;20664;-82
2021/06/23 00:09:47;;;;;;;5.47;5.00;;;18.50;99.90;;;;;;5072992;28;20625;-82
2021/06/23 00:12:16;;;;;;;6.50;5.87;;;18.50;99.90;;;;;;5073197;28;20678;-82
2021/06/23 00:14:44;;;;;;;6.23;5.60;;;18.50;99.90;;;;;;5072505;28;21149;-83
2021/06/23 00:17:11;;;;;;;5.90;5.50;;;18.70;99.90;;;;;;5073579;28;20707;-83
2021/06/23 00:19:38;;;;;;;6.70;6.10;;;18.70;99.90;;;;;;5072530;28;20609;-82
2021/06/23 00:22:05;;;;;;;7.40;6.70;;;18.70;99.90;;;;;;5073190;28;20625;-83
2021/06/23 00:24:32;;;;;;;6.67;6.17;;;18.70;99.90;;;;;;5072276;28;20637;-83
2021/06/23 00:27:01;;;;;;;7.37;6.73;;;18.60;99.90;;;;;;5073318;28;20657;-83
2021/06/23 00:29:28;;;;;;;7.17;6.57;;;18.60;99.90;;;;;;5072794;28;20613;-84
2021/06/23 00:31:55;;;;;;;7.33;6.63;;;18.60;99.90;;;;;;5072984;28;20624;-84
2021/06/23 00:34:23;;;;;;;10.87;7.40;;;18.40;99.90;;;;;;5072038;28;20628;-83
2021/06/23 00:36:50;;;;;;;8.43;7.63;;;18.40;99.90;;;;;;5072893;28;20623;-83
2021/06/23 00:39:17;;;;;;;8.60;7.80;;;18.40;99.90;;;;;;5072958;28;20663;-83
2021/06/23 00:41:44;;;;;;;8.03;7.30;;;18.30;99.90;;;;;;5072725;28;21020;-83
2021/06/23 00:44:14;;;;;;;8.50;7.80;;;18.20;99.90;;;;;;5072687;28;20681;-83
2021/06/23 00:46:42;;;;;;;8.07;7.37;;;18.20;99.90;;;;;;5071736;28;20641;-83
2021/06/23 00:49:09;;;;;;;8.70;7.80;;;18.30;99.90;;;;;;5072402;28;20675;-82
2021/06/23 00:51:36;;;;;;;8.93;8.13;;;18.30;99.90;;;;;;5072905;28;20671;-83
2021/06/23 00:54:08;;;;;;;9.27;8.47;;;18.30;99.90;;;;;;5072598;28;20607;-84
2021/06/23 00:56:35;;;;;;;9.80;7.30;;;18.30;99.90;;;;;;5072017;28;20700;-83
2021/06/23 00:59:02;;;;;;;8.50;7.60;;;18.20;99.90;;;;;;5072271;28;20719;-84
2021/06/23 01:01:32;;;;;;;7.70;6.90;;;18.20;99.90;;;;;;5071426;28;21218;-83
2021/06/23 01:04:01;;;;;;;8.10;7.30;;;18.20;99.90;;;;;;5072326;28;20617;-83
2021/06/23 01:06:32;;;;;;;7.90;7.13;;;18.20;99.90;;;;;;5088501;28;20620;-83
2021/06/23 01:09:01;;;;;;;8.27;7.53;;;18.20;99.90;;;;;;5092353;28;21018;-84
2021/06/23 01:11:29;;;;;;;8.70;7.33;;;18.20;99.90;;;;;;5091458;28;20973;-84
2021/06/23 01:14:01;;;;;;;8.37;7.57;;;18.20;99.90;;;;;;5092067;28;20620;-83
2021/06/23 01:16:34;;;;;;;7.80;7.20;;;18.20;99.90;;;;;;5091824;28;20624;-84
2021/06/23 01:19:02;;;;;;;9.37;7.80;;;18.20;99.90;;;;;;5092438;28;20622;-84
2021/06/23 01:21:30;;;;;;;7.80;7.17;;;18.20;99.90;;;;;;5092157;28;20650;-84
2021/06/23 01:24:00;;;;;;;7.03;6.47;;;18.20;99.90;;;;;;5092189;28;20796;-83
2021/06/23 01:26:28;;;;;;;7.77;6.83;;;18.10;99.90;;;;;;5091551;28;20639;-83
2021/06/23 01:28:55;;;;;;;8.13;7.43;;;18.10;99.90;;;;;;5091965;28;20686;-83
2021/06/23 01:31:23;;;;;;;8.33;7.03;;;18.10;99.90;;;;;;5092308;28;21262;-83
2021/06/23 01:33:51;;;;;;;8.00;7.33;;;18.10;99.90;;;;;;5092135;28;21270;-83
2021/06/23 01:36:20;;;;;;;7.37;6.67;;;18.00;99.90;;;;;;5091165;28;20627;-83
2021/06/23 01:38:49;;;;;;;9.50;7.17;;;17.90;99.90;;;;;;5091514;28;20644;-83
2021/06/23 01:41:18;;;;;;;8.50;7.77;;;17.90;99.90;;;;;;5091810;28;20696;-83
2021/06/23 01:43:46;;;;;;;7.77;7.10;;;17.90;99.90;;;;;;5091941;28;20608;-83
2021/06/23 01:46:16;;;;;;;7.97;6.40;;;17.80;99.90;;;;;;5090675;28;20620;-83
2021/06/23 01:48:43;;;;;;;7.57;6.50;;;17.70;99.90;;;;;;5091551;28;21008;-84
2021/06/23 01:51:11;;;;;;;8.33;6.93;;;17.70;99.90;;;;;;5091396;28;20620;-84
2021/06/23 01:53:39;;;;;;;6.70;6.20;;;17.60;99.90;;;;;;5091549;28;20956;-83
2021/06/23 01:56:08;;;;;;;8.10;6.77;;;17.50;99.90;;;;;;5087211;28;21163;-83
2021/06/23 01:58:39;;;;;;;6.80;6.30;;;17.50;99.90;;;;;;5080118;28;20652;-84
2021/06/23 02:01:17;;;;;;;6.57;6.07;;;17.40;99.90;;;;;;5076168;28;20632;-84
2021/06/23 02:04:10;;;;;;;10.43;6.80;;;17.40;99.90;;;;;;5079364;28;20626;-83
2021/06/23 02:07:06;;;;;;;6.43;5.93;;;17.40;99.90;;;;;;5081227;28;20639;-83
2021/06/23 02:09:46;;;;;;;7.27;6.77;;;17.50;99.90;;;;;;5069334;28;20702;-83
2021/06/23 02:12:28;;;;;;;6.90;6.23;;;17.40;99.90;;;;;;5090738;28;20643;-83
2021/06/23 02:15:00;;;;;;;7.07;6.53;;;17.50;99.90;;;;;;5090686;28;20633;-83
2021/06/23 02:17:29;;;;;;;7.13;6.53;;;17.50;99.90;;;;;;5091396;28;20628;-83
2021/06/23 02:19:59;;;;;;;7.50;6.40;;;17.40;99.90;;;;;;5077048;28;20951;-83
2021/06/23 02:22:31;;;;;;;6.50;5.90;;;17.40;99.90;;;;;;5070555;28;20659;-83
2021/06/23 02:25:11;;;;;;;5.40;5.00;;;17.50;99.90;;;;;;5070300;28;20658;-83
2021/06/23 02:27:41;;;;;;;6.47;5.87;;;17.60;99.90;;;;;;5070782;28;20682;-83
2021/06/23 02:30:13;;;;;;;7.10;6.10;;;17.60;99.90;;;;;;5070543;28;20663;-83
2021/06/23 02:32:42;;;;;;;6.80;6.20;;;17.60;99.90;;;;;;5070497;28;21182;-83
2021/06/23 02:35:10;;;;;;;5.90;5.50;;;17.60;99.90;;;;;;5069691;28;20613;-82
2021/06/23 02:37:38;;;;;;;6.80;6.10;;;17.60;99.90;;;;;;5088930;28;20655;-83
2021/06/23 02:40:07;;;;;;;6.53;5.93;;;17.60;99.90;;;;;;5090878;28;20621;-83
2021/06/23 02:42:34;;;;;;;7.70;7.00;;;17.60;99.90;;;;;;5091059;28;20665;-83
2021/06/23 02:45:01;;;;;;;7.77;5.90;;;17.60;99.90;;;;;;5090131;28;21151;-83
2021/06/23 02:47:30;;;;;;;8.33;6.70;;;17.50;99.90;;;;;;5090210;28;20624;-82
2021/06/23 02:49:57;;;;;;;7.27;6.63;;;17.50;99.90;;;;;;5090769;28;20607;-83
2021/06/23 02:52:25;;;;;;;8.67;7.80;;;17.60;99.90;;;;;;5090626;28;21186;-83
2021/06/23 02:54:53;;;;;;;7.40;6.80;;;17.70;99.90;;;;;;5089777;28;20609;-83
2021/06/23 02:57:21;;;;;;;7.40;6.40;;;17.70;99.90;;;;;;5089629;28;20650;-83
2021/06/23 02:59:49;;;;;;;6.83;6.33;;;17.70;99.90;;;;;;5090267;28;20650;-83
2021/06/23 03:02:16;;;;;;;7.07;6.37;;;17.60;99.90;;;;;;5090072;28;20624;-83
2021/06/23 03:04:46;;;;;;;6.00;5.50;;;17.50;99.90;;;;;;5089837;28;20627;-83
2021/06/23 03:07:14;;;;;;;6.63;6.03;;;17.40;99.90;;;;;;5090110;28;20621;-82
2021/06/23 03:09:43;;;;;;;8.90;8.10;;;17.40;99.90;;;;;;5088532;28;21048;-82
2021/06/23 03:12:12;;;;;;;7.60;6.90;;;17.30;99.90;;;;;;5069199;28;20711;-83
2021/06/23 03:14:39;;;;;;;8.00;7.30;;;17.40;99.90;;;;;;5069344;28;20750;-83
2021/06/23 03:17:06;;;;;;;9.10;7.90;;;17.40;99.90;;;;;;5070357;28;20713;-83
2021/06/23 03:19:33;;;;;;;9.30;8.50;;;17.40;99.90;;;;;;5070132;28;20605;-83
2021/06/23 03:22:05;;;;;;;10.60;7.00;;;17.30;99.90;;;;;;5068016;28;20733;-84
2021/06/23 03:24:32;;;;;;;7.93;7.23;;;17.20;99.90;;;;;;5068199;28;20619;-83
2021/06/23 03:26:59;;;;;;;8.97;8.23;;;17.20;99.90;;;;;;5068034;28;20677;-83
2021/06/23 03:29:28;;;;;;;7.80;7.20;;;17.10;99.90;;;;;;5069450;28;20681;-83
2021/06/23 03:31:56;;;;;;;10.10;7.47;;;17.10;99.90;;;;;;5069835;28;20706;-84
2021/06/23 03:34:23;;;;;;;7.50;6.80;;;17.00;99.90;;;;;;5069378;28;20676;-83
2021/06/23 03:36:50;;;;;;;7.57;6.70;;;17.10;99.90;;;;;;5069670;28;20990;-83
2021/06/23 03:39:19;;;;;;;8.43;6.60;;;17.10;99.90;;;;;;5069929;28;21008;-83
2021/06/23 03:41:46;;;;;;;7.53;6.83;;;17.10;99.90;;;;;;5069115;28;20693;-83
2021/06/23 03:44:13;;;;;;;7.40;6.80;;;17.10;99.90;;;;;;5069705;28;20618;-83
2021/06/23 03:46:40;;;;;;;7.33;6.73;;;17.20;99.90;;;;;;5069250;28;20661;-83
2021/06/23 03:49:07;;;;;;;8.10;7.40;;;17.20;99.90;;;;;;5069880;28;20659;-83
2021/06/23 03:51:34;;;;;;;7.60;6.90;;;17.30;99.90;;;;;;5069688;28;21178;-83
2021/06/23 03:54:01;;;;;;;8.00;7.20;;;17.30;99.90;;;;;;5069496;28;20609;-83
2021/06/23 03:56:30;;;;;;;9.00;6.70;;;17.30;99.90;;;;;;5068853;28;20624;-83
2021/06/23 03:58:57;;;;;;;6.77;6.17;;;17.30;99.90;;;;;;5070131;28;20615;-84
2021/06/23 04:01:24;;;;;;;8.60;7.90;;;17.30;99.90;;;;;;5069839;28;20625;-84
2021/06/23 04:03:51;;;;;;;10.83;7.93;;;17.30;99.90;;;;;;5069559;28;20665;-83
2021/06/23 04:06:18;;;;;;;7.93;7.23;;;17.20;99.90;;;;;;5069003;28;20657;-84
2021/06/23 04:08:45;;;;;;;8.47;7.17;;;17.10;99.90;;;;;;5069241;28;20739;-84
2021/06/23 04:11:11;;;;;;;6.53;5.93;;;17.10;99.90;;;;;;5086564;28;20680;-83
2021/06/23 04:13:40;;;;;;;7.50;5.83;;;17.10;99.90;;;;;;5093614;28;20707;-84
2021/06/23 04:16:07;;;;;;;7.20;6.60;;;17.20;99.90;;;;;;5092955;28;20623;-83
2021/06/23 04:18:34;;;;;;;7.10;6.50;;;17.30;99.90;;;;;;5093308;28;20700;-83
2021/06/23 04:21:01;;;;;;;7.67;6.70;;;17.30;99.90;;;;;;5093245;28;20656;-83
2021/06/23 04:23:28;;;;;;;7.07;6.57;;;17.40;99.90;;;;;;5092734;28;20624;-83
2021/06/23 04:25:55;;;;;;;7.00;6.37;;;17.40;99.90;;;;;;5092738;28;20664;-83
2021/06/23 04:28:21;;;;;;;16.27;6.90;;;17.60;99.90;;;;;;5093348;28;20688;-83
2021/06/23 04:30:50;;;;;;;7.67;6.90;;;17.60;99.90;;;;;;5093235;28;20619;-83
2021/06/23 04:33:17;;;;;;;7.13;6.63;;;17.60;99.90;;;;;;5093210;28;20618;-83
2021/06/23 04:35:44;;;;;;;7.93;6.70;;;17.60;99.90;;;;;;5092438;28;20625;-83
2021/06/23 04:38:11;;;;;;;8.33;7.63;;;17.70;99.90;;;;;;5092868;28;20605;-84
2021/06/23 04:40:40;;;;;;;7.30;6.70;;;17.50;99.90;;;;;;5092667;28;20638;-83
2021/06/23 04:43:07;;;;;;;6.97;5.80;;;17.40;99.90;;;;;;5093003;28;21014;-83
2021/06/23 04:45:33;;;;;;;5.60;5.10;;;17.40;99.90;;;;;;5092456;28;20627;-83
2021/06/23 04:48:02;;;;;;;7.57;6.80;;;17.40;99.90;;;;;;5092754;28;20681;-83
2021/06/23 04:50:29;;;;;;;7.10;6.50;;;17.50;99.90;;;;;;5092279;28;20661;-83
2021/06/23 04:52:56;;;;;;;5.83;5.33;;;17.60;99.90;;;;;;5092616;28;21006;-83
2021/06/23 04:55:23;;;;;;;5.30;4.90;;;17.70;99.90;;;;;;5092184;28;20724;-82
2021/06/23 04:57:50;;;;;;;7.30;6.60;;;17.80;99.90;;;;;;5092480;28;20641;-83
2021/06/23 05:00:18;;;;;;;7.13;5.47;;;17.90;99.90;;;;;;5092883;28;20622;-83
2021/06/23 05:02:45;;;;;;;6.03;5.43;;;18.00;99.90;;;;;;5092368;28;20622;-82
2021/06/23 05:05:14;;;;;;;5.17;4.67;;;18.10;99.90;;;;;;5091802;28;20657;-83
2021/06/23 05:07:41;;;;;;;5.17;4.77;;;18.20;99.90;;;;;;5092389;28;20615;-83
2021/06/23 05:10:08;;;;;;;5.10;4.60;;;18.10;99.90;;;;;;5091801;28;21079;-82
2021/06/23 05:12:35;;;;;;;5.23;4.43;;;18.00;99.90;;;;;;5092612;28;20685;-83
2021/06/23 05:15:02;;;;;;;4.90;3.60;;;17.90;99.90;;;;;;5091855;28;20669;-82
2021/06/23 05:17:29;;;;;;;3.00;2.80;;;18.00;99.90;;;;;;5091857;28;20722;-83
2021/06/23 05:19:56;;;;;;;2.90;2.70;;;17.90;99.90;;;;;;5091951;28;20672;-83
2021/06/23 05:22:25;;;;;;;3.50;3.20;;;17.90;99.90;;;;;;5091745;28;20984;-83
2021/06/23 05:24:52;;;;;;;2.33;2.20;;;18.10;99.90;;;;;;5091647;28;20715;-83
2021/06/23 05:27:18;;;;;;;3.30;2.57;;;18.10;99.90;;;;;;5091998;28;21018;-83
2021/06/23 05:29:45;;;;;;;2.83;2.03;;;18.00;99.90;;;;;;5092026;28;21069;-83
2021/06/23 05:32:12;;;;;;;2.30;2.10;;;18.10;99.90;;;;;;5091545;28;20666;-83
2021/06/23 05:34:39;;;;;;;1.90;1.77;;;18.20;99.90;;;;;;5091553;28;20620;-84
2021/06/23 05:37:06;;;;;;;7.80;1.80;;;18.30;99.90;;;;;;5091753;28;20652;-83
2021/06/23 05:39:34;;;;;;;2.13;2.00;;;18.40;99.90;;;;;;5091827;28;20658;-83
2021/06/23 05:42:01;;;;;;;2.23;1.53;;;18.50;99.90;;;;;;5091742;28;20996;-84
2021/06/23 05:44:29;;;;;;;1.70;1.57;;;18.70;99.90;;;;;;5091032;28;20601;-83
2021/06/23 05:46:56;;;;;;;1.60;1.50;;;18.80;99.90;;;;;;5091480;28;21168;-83
2021/06/23 05:49:23;;;;;;;1.67;1.57;;;18.80;99.90;;;;;;5091623;28;20699;-82
2021/06/23 05:51:50;;;;;;;1.27;1.23;;;18.80;99.90;;;;;;5091674;28;21164;-83
2021/06/23 05:54:16;;;;;;;1.80;1.70;;;18.80;99.90;;;;;;5084842;28;20651;-83
2021/06/23 05:56:45;;;;;;;2.37;2.17;;;18.90;99.90;;;;;;5088564;28;20621;-83
2021/06/23 05:59:11;;;;;;;2.40;1.57;;;18.80;99.90;;;;;;5074110;28;20633;-83
2021/06/23 06:01:38;;;;;;;1.67;1.57;;;18.90;99.90;;;;;;5084809;28;20645;-83
2021/06/23 06:04:05;;;;;;;1.50;1.40;;;19.00;99.90;;;;;;5082228;28;20624;-83
2021/06/23 06:06:32;;;;;;;2.17;1.70;;;19.10;99.90;;;;;;5084514;28;20625;-83
2021/06/23 06:08:59;;;;;;;4.13;1.40;;;19.20;99.90;;;;;;5091029;28;21056;-83
2021/06/23 06:11:27;;;;;;;1.63;1.53;;;19.30;99.90;;;;;;5075426;28;20625;-82
2021/06/23 06:13:56;;;;;;;1.67;1.57;;;19.50;99.90;;;;;;5090692;28;20671;-83
2021/06/23 06:16:23;;;;;;;1.80;1.70;;;19.60;99.90;;;;;;5088809;28;20625;-83
2021/06/23 06:18:50;;;;;;;1.73;1.63;;;19.80;99.90;;;;;;5084043;28;21166;-82
2021/06/23 06:21:17;;;;;;;2.30;2.20;;;19.70;99.90;;;;;;5091145;28;20609;-83
2021/06/23 06:23:43;;;;;;;2.00;1.80;;;19.60;99.90;;;;;;5090734;28;20687;-83
2021/06/23 06:26:10;;;;;;;2.03;1.83;;;19.60;99.90;;;;;;5090110;28;20648;-83
2021/06/23 06:28:39;;;;;;;1.87;1.77;;;19.60;99.90;;;;;;5090852;28;20617;-82
2021/06/23 06:31:07;;;;;;;2.03;1.93;;;19.60;99.90;;;;;;5090949;28;20629;-83
2021/06/23 06:33:34;;;;;;;2.10;2.00;;;19.60;99.90;;;;;;5090681;28;20609;-82
2021/06/23 06:36:02;;;;;;;2.13;1.90;;;19.80;99.90;;;;;;5090020;28;21042;-83
2021/06/23 06:38:29;;;;;;;2.40;2.20;;;19.90;99.90;;;;;;5090798;28;20632;-83
2021/06/23 06:40:56;;;;;;;2.87;2.00;;;19.90;99.90;;;;;;5089776;28;20624;-83
2021/06/23 06:43:23;;;;;;;2.83;2.03;;;20.00;99.90;;;;;;5090630;28;20701;-82
2021/06/23 06:45:51;;;;;;;3.00;2.03;;;20.10;99.90;;;;;;5089966;28;20620;-82
2021/06/23 06:48:21;;;;;;;2.27;2.13;;;19.90;99.90;;;;;;5090789;28;20620;-82
2021/06/23 06:50:49;;;;;;;2.13;2.03;;;20.00;99.90;;;;;;5090458;28;20762;-83
2021/06/23 06:53:16;;;;;;;4.73;2.30;;;20.10;99.90;;;;;;5090021;28;20612;-82
2021/06/23 06:55:43;;;;;;;3.33;3.13;;;20.10;99.90;;;;;;5090113;28;20624;-83
2021/06/23 06:58:10;;;;;;;2.40;2.17;;;20.20;99.90;;;;;;5090571;28;20704;-82
2021/06/23 07:00:38;;;;;;;3.03;2.83;;;20.30;99.90;;;;;;5090777;28;20658;-82
2021/06/23 07:03:06;;;;;;;3.80;2.43;;;20.20;99.90;;;;;;5090427;28;20620;-83
2021/06/23 07:05:34;;;;;;;2.97;2.77;;;20.30;99.90;;;;;;5089600;28;20620;-82
2021/06/23 07:08:02;;;;;;;5.20;2.87;;;20.50;99.90;;;;;;5089696;28;20609;-82
2021/06/23 07:10:29;;;;;;;3.20;2.90;;;20.60;99.90;;;;;;5089491;28;20659;-81
2021/06/23 07:12:59;;;;;;;3.40;3.10;;;20.70;99.90;;;;;;5090194;28;20624;-82
2021/06/23 07:15:30;;;;;;;3.50;3.27;;;20.90;99.90;;;;;;5089757;28;20674;-82
2021/06/23 07:17:58;;;;;;;3.33;3.03;;;21.10;99.90;;;;;;5090375;28;20956;-83
2021/06/23 07:20:25;;;;;;;2.83;2.63;;;21.10;99.90;;;;;;5089483;28;20675;-82
2021/06/23 07:22:53;;;;;;;3.80;3.33;;;21.30;99.90;;;;;;5090128;28;20625;-83
2021/06/23 07:25:21;;;;;;;2.50;2.30;;;21.20;99.90;;;;;;5089599;28;20669;-83
2021/06/23 07:27:48;;;;;;;3.00;2.80;;;21.20;99.90;;;;;;5090188;28;21025;-83
2021/06/23 07:30:15;;;;;;;6.80;3.10;;;21.10;99.90;;;;;;5090186;28;20690;-83
2021/06/23 07:32:53;;;;;;;2.77;2.57;;;21.00;99.80;;;;;;5090150;28;20616;-83
2021/06/23 07:38:11;;;;;;;2.50;2.30;;;21.00;99.90;;;;;;5090161;28;20666;-83
2021/06/23 07:40:50;;;;;;;2.87;2.67;;;21.20;99.90;;;;;;5090024;28;21031;-84
2021/06/23 07:43:17;;;;;;;3.30;2.50;;;21.40;99.90;;;;;;5089433;28;21166;-83
2021/06/23 07:45:48;;;;;;;2.77;2.57;;;21.40;99.90;;;;;;5093350;28;21165;-83
2021/06/23 07:48:15;;;;;;;2.97;2.43;;;21.40;99.90;;;;;;5094099;28;20619;-83
2021/06/23 07:50:47;;;;;;;2.77;2.57;;;21.50;99.80;;;;;;5092696;28;21360;-84
2021/06/23 07:53:23;;;;;;;2.90;2.70;;;21.50;99.90;;;;;;5089759;28;20638;-84
2021/06/23 07:56:06;;;;;;;2.43;2.33;;;21.60;99.60;;;;;;5087552;28;20705;-83
2021/06/23 08:09:40;;;;;;;3.07;2.27;;;22.40;99.30;;;;;;5093538;28;20643;-84
2021/06/23 08:14:55;;;;;;;3.20;3.00;;;23.00;97.60;;;;;;5092853;28;20625;-85
2021/06/23 08:17:24;;;;;;;2.63;2.43;;;23.00;96.70;;;;;;5093450;28;20645;-84
2021/06/23 08:19:54;;;;;;;3.00;2.77;;;23.10;96.70;;;;;;5093756;28;20992;-84
2021/06/23 08:22:22;;;;;;;4.30;2.50;;;23.10;96.60;;;;;;5092393;28;21079;-84
2021/06/23 08:24:52;;;;;;;2.77;2.40;;;23.20;96.50;;;;;;5092346;28;21253;-84
2021/06/23 08:27:20;;;;;;;2.70;2.60;;;23.40;96.30;;;;;;5083252;28;20980;-84
2021/06/23 08:29:47;;;;;;;2.97;2.70;;;23.40;96.50;;;;;;5087479;28;21095;-84
2021/06/23 08:32:14;;;;;;;2.57;2.37;;;23.40;95.50;;;;;;5092709;28;20635;-84
2021/06/23 08:34:41;;;;;;;3.07;2.73;;;23.50;95.10;;;;;;5076228;28;20673;-83
2021/06/23 08:37:08;;;;;;;3.33;3.03;;;23.40;95.10;;;;;;5088767;28;20984;-83
2021/06/23 08:39:35;;;;;;;2.80;2.47;;;23.50;95.70;;;;;;5081484;28;20953;-85
2021/06/23 08:42:04;;;;;;;2.73;2.53;;;23.60;95.50;;;;;;5084706;28;20627;-84
2021/06/23 08:44:31;;;;;;;4.07;2.50;;;23.90;94.80;;;;;;5076849;28;21021;-83
2021/06/23 08:47:01;;;;;;;3.20;3.00;;;24.00;94.50;;;;;;5089747;28;20616;-84
2021/06/23 08:49:29;;;;;;;5.47;2.63;;;24.10;93.60;;;;;;5080206;28;20644;-84
2021/06/23 08:51:57;;;;;;;2.53;2.27;;;24.20;93.70;;;;;;5081825;28;20617;-85
2021/06/23 08:54:26;;;;;;;2.50;2.30;;;24.40;93.40;;;;;;5086906;28;20715;-84
2021/06/23 08:56:54;;;;;;;3.27;2.30;;;24.60;91.90;;;;;;5089124;28;20666;-84
2021/06/23 08:59:23;;;;;;;2.50;2.30;;;24.60;91.90;;;;;;5078818;28;21177;-84
2021/06/23 09:01:50;;;;;;;2.03;1.93;;;24.80;91.70;;;;;;5082514;28;20755;-84
2021/06/23 09:04:18;;;;;;;4.40;1.80;;;24.90;91.40;;;;;;5086545;28;20608;-84
2021/06/23 09:06:49;;;;;;;2.50;2.30;;;25.00;90.40;;;;;;5076636;28;20614;-83
2021/06/23 09:09:28;;;;;;;2.23;2.13;;;24.90;87.80;;;;;;5077949;28;20612;-84
2021/06/23 09:11:57;;;;;;;2.57;2.37;;;25.00;90.10;;;;;;5085358;28;20614;-84
2021/06/23 09:14:30;;;;;;;3.00;2.73;;;24.80;88.70;;;;;;5091908;28;20743;-84
2021/06/23 09:17:09;;;;;;;2.63;2.10;;;24.60;90.90;;;;;;5092161;28;21166;-85
2021/06/23 09:19:42;;;;;;;4.47;2.20;;;24.40;91.30;;;;;;5091835;28;21207;-85
2021/06/23 09:22:40;;;;;;;2.53;2.33;;;24.80;91.70;;;;;;5092878;28;20632;-83
2021/06/23 09:25:24;;;;;;;1.93;1.83;;;24.90;90.60;;;;;;5091631;28;20933;-83
2021/06/23 09:27:53;;;;;;;2.63;2.43;;;25.00;89.30;;;;;;5091972;28;20632;-85
2021/06/23 09:30:28;;;;;;;2.23;2.10;;;25.00;90.00;;;;;;5092248;28;20658;-84
2021/06/23 09:33:16;;;;;;;3.20;2.30;;;25.40;86.50;;;;;;5092315;28;20690;-84
2021/06/23 09:35:45;;;;;;;1.90;1.80;;;25.70;87.30;;;;;;5091291;28;20612;-84
2021/06/23 09:38:32;;;;;;;1.83;1.73;;;26.00;87.90;;;;;;5091909;28;20612;-84
2021/06/23 09:41:00;;;;;;;3.10;2.00;;;26.00;83.40;;;;;;5091730;28;20618;-85
2021/06/23 09:43:36;;;;;;;1.60;1.50;;;26.00;82.80;;;;;;5092097;28;20612;-84
2021/06/23 09:46:15;;;;;;;1.70;1.60;;;26.00;81.60;;;;;;5090614;28;21251;-85
2021/06/23 09:48:42;;;;;;;3.03;1.63;;;26.10;81.30;;;;;;5091689;28;21203;-84
2021/06/23 09:51:14;;;;;;;2.10;1.87;;;26.10;79.70;;;;;;5091651;28;20659;-84
2021/06/23 09:53:41;;;;;;;1.40;1.37;;;26.40;80.80;;;;;;5091558;28;20636;-84
2021/06/23 09:56:27;;;;;;;1.93;1.83;;;26.50;80.70;;;;;;5091070;28;20649;-83
2021/06/23 09:58:55;;;;;;;2.40;1.50;;;26.50;74.70;;;;;;5091429;28;20608;-84
2021/06/23 10:01:25;;;;;;;1.60;1.50;;;26.50;82.20;;;;;;5091583;28;20628;-85
2021/06/23 10:03:57;;;;;;;1.10;1.00;;;26.70;75.60;;;;;;5091249;28;20620;-85
2021/06/23 10:06:25;;;;;;;1.37;1.30;;;26.80;75.60;;;;;;5090756;28;20628;-85
2021/06/23 10:09:11;;;;;;;3.27;1.60;;;26.70;74.00;;;;;;5091507;28;20620;-85
2021/06/23 10:11:39;;;;;;;1.47;1.37;;;26.60;73.80;;;;;;5090239;28;20680;-85
2021/06/23 10:14:06;;;;;;;1.60;1.50;;;26.60;74.10;;;;;;5091500;28;20609;-84
2021/06/23 10:16:35;;;;;;;1.00;1.00;;;26.60;74.00;;;;;;5090491;28;20620;-85
2021/06/23 10:19:04;;;;;;;1.67;1.03;;;26.70;70.10;;;;;;5091208;28;20663;-83
2021/06/23 10:21:32;;;;;;;1.60;1.50;;;26.70;74.00;;;;;;5089520;28;21177;-82
2021/06/23 10:23:59;;;;;;;1.90;1.47;;;26.60;69.90;;;;;;5090726;28;20650;-85
2021/06/23 10:26:27;;;;;;;1.20;1.20;;;26.70;71.00;;;;;;5090399;28;20601;-85
2021/06/23 10:28:56;;;;;;;1.03;0.93;;;26.80;69.10;;;;;;5091081;28;20723;-86
2021/06/23 10:31:24;;;;;;;1.20;1.10;;;26.90;69.00;;;;;;5090925;28;20676;-85
2021/06/23 10:33:54;;;;;;;0.80;0.80;;;26.90;67.70;;;;;;5088563;28;20628;-84
2021/06/23 10:36:22;;;;;;;1.63;0.97;;;26.60;67.90;;;;;;5087178;28;20657;-85
2021/06/23 10:38:50;;;;;;;0.70;0.70;;;26.40;70.30;;;;;;5089327;28;20625;-85
2021/06/23 10:41:17;;;;;;;0.80;0.80;;;26.70;67.50;;;;;;5089353;28;20670;-85
2021/06/23 10:44:04;;;;;;;0.93;0.93;;;26.70;66.10;;;;;;5090199;28;20624;-86
2021/06/23 10:46:39;;;;;;;0.97;0.97;;;26.90;66.20;;;;;;5068957;28;20756;-85
2021/06/23 10:49:07;;;;;;;1.00;0.83;;;27.00;65.90;;;;;;5069995;28;20621;-85
2021/06/23 10:51:34;;;;;;;1.10;0.90;;;27.10;66.00;;;;;;5070267;28;20761;-85
2021/06/23 10:54:39;;;;;;;0.60;0.60;;;27.00;64.40;;;;;;5069833;28;21243;-85
2021/06/23 10:57:25;;;;;;;1.80;0.80;;;27.00;62.00;;;;;;5070104;28;20637;-86
2021/06/23 10:59:53;;;;;;;1.07;0.80;;;27.10;62.00;;;;;;5070405;28;20720;-86
2021/06/23 11:02:29;;;;;;;1.00;1.00;;;27.30;64.30;;;;;;5070467;28;20651;-86
2021/06/23 11:05:18;;;;;;;1.17;0.70;;;27.60;62.90;;;;;;5068192;28;20712;-87
2021/06/23 11:07:46;;;;;;;0.60;0.60;;;28.00;60.60;;;;;;5066882;28;20694;-86
2021/06/23 11:10:30;;;;;;;0.93;0.90;;;27.90;58.70;;;;;;5069096;28;20614;-86
2021/06/23 11:12:59;;;;;;;0.93;0.93;;;28.00;58.80;;;;;;5070474;28;20617;-86
2021/06/23 11:15:36;;;;;;;0.80;0.80;;;27.90;58.40;;;;;;5069701;28;20659;-86
2021/06/23 11:18:26;;;;;;;1.00;0.90;;;27.90;58.20;;;;;;5069593;28;20605;-87
2021/06/23 11:20:56;;;;;;;2.30;1.13;;;28.20;60.60;;;;;;5070040;28;20637;-86
2021/06/23 11:23:44;;;;;;;1.90;0.90;;;28.40;59.40;;;;;;5070335;28;20621;-86
2021/06/23 11:26:49;;;;;;;0.60;0.60;;;28.70;56.10;;;;;;5069220;28;20999;-86
2021/06/23 11:29:30;;;;;;;2.10;0.80;;;28.90;56.70;;;;;;5069934;28;20613;-87
2021/06/23 11:32:02;;;;;;;1.60;0.80;;;28.90;56.60;;;;;;5069876;28;20661;-84
2021/06/23 11:34:54;;;;;;;0.57;0.57;;;28.70;55.20;;;;;;5067849;28;20634;-87
2021/06/23 11:37:31;;;;;;;0.63;0.63;;;28.60;54.60;;;;;;5070238;28;20668;-85
2021/06/23 11:40:19;;;;;;;0.70;0.70;;;28.80;55.60;;;;;;5069418;28;20987;-87
2021/06/23 11:42:46;;;;;;;0.73;0.73;;;29.30;55.40;;;;;;5069348;28;21200;-86
2021/06/23 11:45:16;;;;;;;1.03;0.77;;;29.50;53.40;;;;;;5069191;28;21139;-86
2021/06/23 11:47:44;;;;;;;0.70;0.70;;;29.40;54.40;;;;;;5069819;28;20629;-87
2021/06/23 11:50:11;;;;;;;0.60;0.60;;;29.60;52.60;;;;;;5070047;28;20622;-86
2021/06/23 11:52:40;;;;;;;0.67;0.67;;;30.10;52.70;;;;;;5069948;28;20684;-88
2021/06/23 11:55:12;;;;;;;0.80;0.80;;;30.30;53.20;;;;;;5068810;28;20613;-87
2021/06/23 11:57:39;;;;;;;1.33;0.73;;;30.50;53.40;;;;;;5069054;28;20699;-88
2021/06/23 12:00:07;;;;;;;1.37;0.77;;;31.00;55.10;;;;;;5069483;28;21189;-85
2021/06/23 12:02:35;;;;;;;0.80;0.80;;;32.00;51.40;;;;;;5070191;28;20629;-87
2021/06/23 12:05:01;;;;;;;0.83;0.83;;;32.70;50.60;;;;;;5068402;28;20606;-88
2021/06/23 12:07:28;;;;;;;1.00;0.80;;;33.50;51.20;;;;;;5069662;28;20759;-87
2021/06/23 12:09:57;;;;;;;0.73;0.73;;;33.40;49.70;;;;;;5068312;28;20627;-90
2021/06/23 12:12:24;;;;;;;0.80;0.80;;;32.50;49.70;;;;;;5069482;28;20661;-87
2021/06/23 12:14:50;;;;;;;0.80;0.80;;;32.90;50.90;;;;;;5068586;28;21019;-87
2021/06/23 12:17:18;;;;;;;1.10;0.77;;;33.70;49.90;;;;;;5069417;28;20617;-85
2021/06/23 12:19:45;;;;;;;0.67;0.67;;;34.50;48.50;;;;;;5069403;28;20979;-87
2021/06/23 12:22:13;;;;;;;0.60;0.60;;;35.20;46.30;;;;;;5069638;28;20628;-86
2021/06/23 12:24:40;;;;;;;0.70;0.60;;;35.50;46.50;;;;;;5068123;28;21169;-87
2021/06/23 12:27:09;;;;;;;1.67;1.20;;;34.30;46.70;;;;;;5069625;28;20624;-86
2021/06/23 12:29:37;;;;;;;1.93;1.10;;;33.30;48.70;;;;;;5069539;28;20620;-86
2021/06/23 12:32:05;;;;;;;0.77;0.77;;;33.00;49.40;;;;;;5073110;28;20663;-86
2021/06/23 12:34:32;;;;;;;0.90;0.90;;;32.10;49.90;;;;;;5067647;28;20741;-86
2021/06/23 12:37:00;;;;;;;0.60;0.60;;;31.10;50.80;;;;;;5060249;28;20613;-86
2021/06/23 12:39:27;;;;;;;0.70;0.70;;;30.50;51.60;;;;;;5072809;28;21160;-86
2021/06/23 12:41:54;;;;;;;0.70;0.70;;;29.80;53.20;;;;;;5072598;28;20629;-87
2021/06/23 12:44:22;;;;;;;0.80;0.70;;;28.90;52.50;;;;;;5072207;28;21190;-86
2021/06/23 12:46:49;;;;;;;0.80;0.80;;;28.00;54.30;;;;;;5072571;28;20613;-87
2021/06/23 12:49:16;;;;;;;0.73;0.73;;;27.80;56.70;;;;;;5072903;28;20973;-85
2021/06/23 12:51:43;;;;;;;0.70;0.70;;;28.50;56.90;;;;;;5072345;28;20694;-87
2021/06/23 12:54:11;;;;;;;1.27;0.70;;;29.60;54.80;;;;;;5072691;28;20713;-87
2021/06/23 12:56:38;;;;;;;0.67;0.67;;;31.20;52.50;;;;;;5071985;28;20617;-87
2021/06/23 12:59:05;;;;;;;1.83;0.97;;;32.40;50.30;;;;;;5072839;28;20626;-87
2021/06/23 13:01:33;;;;;;;1.00;0.87;;;33.40;50.20;;;;;;5072439;28;20610;-88
2021/06/23 13:04:00;;;;;;;0.80;0.80;;;34.00;47.80;;;;;;5072695;28;21059;-87
2021/06/23 13:06:27;;;;;;;0.40;0.40;;;34.90;46.70;;;;;;5071121;28;21065;-86
2021/06/23 13:08:54;;;;;;;1.10;0.80;;;34.70;44.80;;;;;;5072498;28;20655;-87
2021/06/23 13:11:21;;;;;;;0.90;0.90;;;33.50;45.50;;;;;;5071506;28;21291;-87
2021/06/23 13:13:48;;;;;;;0.70;0.70;;;32.40;45.60;;;;;;5071981;28;20639;-88
2021/06/23 13:16:17;;;;;;;1.20;0.93;;;31.30;48.00;;;;;;5071410;28;20692;-88